Time;durP1;ratioP1;P1;durP2;ratioP2;P2;SDS_P1;SDS_P2;PMS_P1;PMS_P2;Temp;Humidity;BMP_temperature;BMP_pressure;BME280_temperature;BME280_humidity;BME280_pressure;Samples;Min_cycle;Max_cycle;Signal;HPM_P1;HPM_P2
2021/04/08 00:01:12;;;;;;;4.00;2.88;;;;;;;2.70;100.00;97434.28;5074352;28;20132;-84
2021/04/08 00:03:37;;;;;;;3.05;2.85;;;;;;;2.72;100.00;97427.16;5074179;28;20524;-84
2021/04/08 00:06:03;;;;;;;2.17;1.70;;;;;;;2.71;100.00;97430.69;5074282;28;20028;-84
2021/04/08 00:08:29;;;;;;;2.05;1.88;;;;;;;2.58;100.00;97410.91;5074011;28;20600;-84
2021/04/08 00:10:54;;;;;;;1.75;1.65;;;;;;;2.61;100.00;97424.00;5074301;28;20124;-84
2021/04/08 00:13:20;;;;;;;2.08;1.70;;;;;;;2.60;100.00;97442.53;5091127;28;20036;-84
2021/04/08 00:15:45;;;;;;;2.40;1.98;;;;;;;2.46;100.00;97421.00;5074061;28;20054;-84
2021/04/08 00:18:11;;;;;;;2.97;2.15;;;;;;;2.53;100.00;97425.16;5073882;28;20036;-83
2021/04/08 00:20:37;;;;;;;2.53;2.10;;;;;;;2.62;100.00;97440.69;5073893;28;20036;-84
2021/04/08 00:23:03;;;;;;;1.58;1.48;;;;;;;2.68;100.00;97451.03;5074138;28;20118;-84
2021/04/08 00:25:28;;;;;;;4.90;2.00;;;;;;;2.61;100.00;97433.69;5073911;28;20127;-84
2021/04/08 00:27:54;;;;;;;1.92;1.75;;;;;;;2.54;100.00;97448.88;5090862;28;20081;-84
2021/04/08 00:30:20;;;;;;;1.75;1.65;;;;;;;2.53;100.00;97440.97;5091177;28;20055;-84
2021/04/08 00:32:46;;;;;;;1.80;1.70;;;;;;;2.58;100.00;97449.63;5073610;28;20028;-84
2021/04/08 00:35:11;;;;;;;2.92;1.35;;;;;;;2.46;100.00;97448.22;5090809;28;20038;-84
2021/04/08 00:37:37;;;;;;;1.20;1.20;;;;;;;2.42;100.00;97448.41;5090450;28;20032;-83
2021/04/08 00:40:11;;;;;;;1.35;1.25;;;;;;;2.29;100.00;97439.13;5073738;28;20035;-84
2021/04/08 00:42:39;;;;;;;1.15;1.08;;;;;;;2.30;100.00;97449.66;5073386;28;20417;-84
2021/04/08 00:45:05;;;;;;;1.30;1.20;;;;;;;2.29;100.00;97463.75;5090283;28;20023;-84
2021/04/08 00:47:31;;;;;;;0.60;0.60;;;;;;;2.23;100.00;97448.09;5073601;28;20487;-84
2021/04/08 00:49:56;;;;;;;0.60;0.60;;;;;;;2.15;100.00;97460.66;5073657;28;20035;-84
2021/04/08 00:52:22;;;;;;;1.08;1.08;;;;;;;2.09;100.00;97463.50;5073509;28;20520;-84
2021/04/08 00:54:48;;;;;;;1.40;1.30;;;;;;;1.99;100.00;97459.38;5073411;28;20039;-84
2021/04/08 00:57:14;;;;;;;0.65;0.65;;;;;;;1.88;100.00;97451.78;5073230;28;20488;-84
2021/04/08 00:59:39;;;;;;;0.47;0.47;;;;;;;1.85;100.00;97451.00;5073361;28;20038;-83
2021/04/08 01:02:05;;;;;;;4.10;1.92;;;;;;;1.74;100.00;97445.19;5073578;28;20034;-84
2021/04/08 01:04:31;;;;;;;0.77;0.75;;;;;;;1.76;100.00;97461.81;5073715;28;20028;-84
2021/04/08 01:06:56;;;;;;;1.00;1.00;;;;;;;1.67;100.00;97455.03;5090301;28;20020;-84
2021/04/08 01:09:22;;;;;;;2.83;1.05;;;;;;;1.61;100.00;97458.72;5073628;28;20415;-83
2021/04/08 01:11:47;;;;;;;1.85;1.38;;;;;;;1.52;100.00;97451.06;5073313;28;20426;-84
2021/04/08 01:14:13;;;;;;;0.85;0.82;;;;;;;1.41;100.00;97447.88;5073380;28;20127;-84
2021/04/08 01:16:55;;;;;;;4.45;1.85;;;;;;;1.44;100.00;97452.19;5073223;28;20036;-85
2021/04/08 01:19:42;;;;;;;1.10;1.08;;;;;;;1.39;100.00;97454.94;5090332;28;20028;-84
2021/04/08 01:22:27;;;;;;;1.05;1.00;;;;;;;1.35;100.00;97455.97;5090021;28;20024;-84
2021/04/08 01:25:23;;;;;;;0.70;0.70;;;;;;;1.36;100.00;97460.28;5073389;28;20032;-84
2021/04/08 01:27:51;;;;;;;1.75;0.98;;;;;;;1.35;100.00;97455.09;5091387;28;20070;-84
2021/04/08 01:30:29;;;;;;;0.35;0.35;;;;;;;1.26;100.00;97452.69;5089998;28;20164;-83
2021/04/08 01:32:55;;;;;;;1.10;1.05;;;;;;;1.33;100.00;97465.66;5091304;28;20028;-84
2021/04/08 01:35:28;;;;;;;2.40;1.48;;;;;;;1.18;100.00;97455.53;5073340;28;20089;-83
2021/04/08 01:38:20;;;;;;;2.78;1.75;;;;;;;1.28;100.00;97467.56;5073053;28;20035;-84
2021/04/08 01:40:47;;;;;;;1.65;1.55;;;;;;;1.24;100.00;97447.47;5073093;28;20473;-84
2021/04/08 01:43:17;;;;;;;6.95;2.90;;;;;;;1.28;100.00;97457.03;5090131;28;20051;-84
2021/04/08 01:45:43;;;;;;;2.97;2.75;;;;;;;1.21;100.00;97446.69;5089947;28;20555;-84
2021/04/08 01:48:09;;;;;;;2.55;2.00;;;;;;;1.23;100.00;97461.53;5073089;28;20107;-84
2021/04/08 01:50:35;;;;;;;5.68;2.65;;;;;;;1.19;100.00;97459.03;5089920;28;20115;-84
2021/04/08 01:53:01;;;;;;;2.20;1.85;;;;;;;1.15;100.00;97468.78;5072888;28;20024;-84
2021/04/08 01:55:27;;;;;;;10.95;5.70;;;;;;;1.16;100.00;97464.38;5073804;28;20035;-84
2021/04/08 01:57:54;;;;;;;2.10;1.95;;;;;;;1.29;100.00;97461.41;5076506;28;20044;-83
2021/04/08 02:00:21;;;;;;;4.15;2.38;;;;;;;1.30;100.00;97468.38;5076713;28;20559;-83
2021/04/08 02:02:48;;;;;;;1.83;1.70;;;;;;;1.32;100.00;97474.47;5076492;28;20096;-84
2021/04/08 02:05:15;;;;;;;4.65;2.80;;;;;;;1.30;100.00;97463.09;5076597;28;20185;-83
2021/04/08 02:07:46;;;;;;;2.58;2.38;;;;;;;1.35;100.00;97471.75;5076697;28;20063;-84
2021/04/08 02:10:13;;;;;;;2.13;1.90;;;;;;;1.23;100.00;97472.06;5076774;28;20032;-83
2021/04/08 02:12:40;;;;;;;1.00;1.00;;;;;;;1.17;100.00;97477.50;5093541;28;20053;-82
2021/04/08 02:15:07;;;;;;;1.58;1.48;;;;;;;1.13;100.00;97475.88;5076147;28;20089;-83
2021/04/08 02:17:37;;;;;;;3.42;2.13;;;;;;;1.09;100.00;97471.56;5076331;28;20031;-83
2021/04/08 02:20:09;;;;;;;1.20;1.10;;;;;;;1.16;100.00;97493.34;5076453;28;20028;-83
2021/04/08 02:22:39;;;;;;;2.08;1.83;;;;;;;1.06;100.00;97484.81;5076382;28;20097;-84
2021/04/08 02:25:08;;;;;;;1.83;1.20;;;;;;;0.99;100.00;97483.22;5076202;28;20036;-84
2021/04/08 02:27:36;;;;;;;8.00;1.48;;;;;;;0.95;100.00;97484.25;5093255;28;20502;-83
2021/04/08 02:30:04;;;;;;;0.63;0.63;;;;;;;0.99;100.00;97493.78;5092915;28;20039;-83
2021/04/08 02:32:30;;;;;;;3.80;1.65;;;;;;;0.98;100.00;97487.66;5076065;28;20164;-83
2021/04/08 02:34:56;;;;;;;3.03;1.48;;;;;;;1.12;100.00;97492.56;5093055;28;20512;-84
2021/04/08 02:37:21;;;;;;;6.93;2.47;;;;;;;1.08;100.00;97498.81;5076135;28;20035;-83
2021/04/08 02:39:47;;;;;;;3.13;2.25;;;;;;;1.16;100.00;97506.53;5076234;28;20071;-84
2021/04/08 02:42:12;;;;;;;4.28;2.05;;;;;;;1.18;100.00;97502.06;5075747;28;20028;-83
2021/04/08 02:44:38;;;;;;;0.88;0.88;;;;;;;1.23;100.00;97494.94;5075893;28;20118;-83
2021/04/08 02:47:04;;;;;;;0.77;0.77;;;;;;;1.27;100.00;97504.47;5092557;28;20028;-84
2021/04/08 02:49:29;;;;;;;2.58;2.25;;;;;;;1.22;100.00;97494.06;5075698;28;20537;-83
2021/04/08 02:51:58;;;;;;;0.55;0.55;;;;;;;1.31;100.00;97509.63;5075469;28;20396;-84
2021/04/08 02:55:08;;;;;;;0.95;0.95;;;;;;;1.36;100.00;97509.50;5075632;28;20036;-84
2021/04/08 02:57:38;;;;;;;2.38;2.08;;;;;;;1.39;100.00;97502.38;5081457;28;20500;-82
2021/04/08 03:00:07;;;;;;;1.77;1.67;;;;;;;1.38;100.00;97498.03;5075053;28;20036;-82
2021/04/08 03:02:34;;;;;;;1.50;1.35;;;;;;;1.49;100.00;97495.09;5075558;28;20028;-84
2021/04/08 03:05:00;;;;;;;0.88;0.88;;;;;;;1.52;100.00;97500.28;5075282;28;20027;-83
2021/04/08 03:07:55;;;;;;;2.35;2.15;;;;;;;1.63;100.00;97516.69;5091683;28;20024;-84
2021/04/08 03:10:34;;;;;;;1.25;1.25;;;;;;;1.49;100.00;97511.78;5066376;28;20132;-84
2021/04/08 03:13:00;;;;;;;4.22;2.95;;;;;;;1.56;100.00;97515.97;5076963;28;20047;-84
2021/04/08 03:15:28;;;;;;;3.03;2.78;;;;;;;1.66;100.00;97526.28;5074961;28;20024;-83
2021/04/08 03:17:55;;;;;;;1.55;1.17;;;;;;;1.63;100.00;97530.69;5074908;28;20027;-84
2021/04/08 03:20:21;;;;;;;1.83;1.73;;;;;;;1.70;100.00;97544.59;5075257;28;20127;-82
2021/04/08 03:22:54;;;;;;;1.50;0.95;;;;;;;1.57;100.00;97538.78;5075038;28;20038;-84
2021/04/08 03:25:20;;;;;;;4.75;2.25;;;;;;;1.66;100.00;97550.00;5075369;28;20167;-84
2021/04/08 03:27:48;;;;;;;2.70;1.65;;;;;;;1.56;100.00;97547.59;5074881;28;20027;-84
2021/04/08 03:30:15;;;;;;;4.78;2.20;;;;;;;1.52;100.00;97545.94;5091819;28;20052;-82
2021/04/08 03:32:41;;;;;;;1.73;1.63;;;;;;;1.48;100.00;97548.69;5075069;28;20028;-82
2021/04/08 03:35:08;;;;;;;2.65;1.98;;;;;;;1.40;100.00;97548.91;5074715;28;20457;-83
2021/04/08 03:37:34;;;;;;;0.52;0.52;;;;;;;1.28;100.00;97543.09;5074722;28;20032;-83
2021/04/08 03:40:01;;;;;;;1.10;1.10;;;;;;;1.41;100.00;97569.09;5074839;28;20028;-84
2021/04/08 03:42:27;;;;;;;2.55;1.80;;;;;;;1.34;100.00;97570.13;5074925;28;20064;-84
2021/04/08 03:44:53;;;;;;;1.75;1.65;;;;;;;1.28;100.00;97570.28;5074799;28;20913;-83
2021/04/08 03:47:21;;;;;;;1.33;1.02;;;;;;;1.31;100.00;97579.88;5074780;28;20024;-84
2021/04/08 03:49:49;;;;;;;0.70;0.70;;;;;;;1.31;100.00;97586.03;5074833;28;20028;-84
2021/04/08 03:52:18;;;;;;;8.30;4.68;;;;;;;1.33;100.00;97599.13;5091470;28;20055;-84
2021/04/08 03:54:56;;;;;;;1.30;1.27;;;;;;;1.22;100.00;97595.91;5074470;28;20036;-84
2021/04/08 03:57:22;;;;;;;2.22;1.77;;;;;;;1.31;100.00;97615.00;5075352;28;20044;-84
2021/04/08 03:59:48;;;;;;;1.48;1.38;;;;;;;1.29;100.00;97615.94;5091430;28;20443;-83
2021/04/08 04:02:15;;;;;;;1.02;1.02;;;;;;;1.31;100.00;97620.28;5074502;28;20023;-82
2021/04/08 04:04:41;;;;;;;5.22;2.42;;;;;;;1.35;100.00;97629.84;5074609;28;20028;-83
2021/04/08 04:07:10;;;;;;;3.15;2.38;;;;;;;1.22;100.00;97607.31;5073955;28;20084;-85
2021/04/08 04:09:36;;;;;;;4.75;2.97;;;;;;;1.46;100.00;97643.59;5091160;28;20020;-84
2021/04/08 04:12:03;;;;;;;1.50;1.40;;;;;;;1.38;100.00;97631.53;5074118;28;20418;-84
2021/04/08 04:14:36;;;;;;;4.47;3.80;;;;;;;1.53;100.00;97646.97;5074238;28;20494;-85
2021/04/08 04:17:26;;;;;;;6.53;4.28;;;;;;;1.55;100.00;97651.28;5074149;28;20039;-84
2021/04/08 04:19:52;;;;;;;4.20;2.72;;;;;;;1.57;100.00;97657.38;5090604;28;20019;-84
2021/04/08 04:22:18;;;;;;;2.85;2.22;;;;;;;1.56;100.00;97642.47;5074099;28;20108;-84
2021/04/08 04:24:44;;;;;;;15.68;2.58;;;;;;;1.74;100.00;97669.28;5074386;28;20415;-85
2021/04/08 04:27:10;;;;;;;3.17;2.88;;;;;;;1.72;100.00;97644.72;5073549;28;20035;-83
2021/04/08 04:29:35;;;;;;;14.07;2.67;;;;;;;1.72;100.00;97650.00;5074110;28;20020;-84
2021/04/08 04:32:01;;;;;;;4.45;1.50;;;;;;;1.75;100.00;97648.16;5091895;28;20081;-84
2021/04/08 04:34:26;;;;;;;2.47;2.28;;;;;;;1.83;100.00;97653.22;5077096;28;20031;-85
2021/04/08 04:36:52;;;;;;;3.28;2.28;;;;;;;1.82;100.00;97657.63;5073893;28;20013;-85
2021/04/08 04:39:17;;;;;;;2.35;2.15;;;;;;;1.97;100.00;97664.28;5073346;28;20435;-86
2021/04/08 04:41:44;;;;;;;1.20;1.20;;;;;;;2.02;100.00;97670.31;5090157;28;20115;-87
2021/04/08 04:44:10;;;;;;;4.20;3.35;;;;;;;2.08;100.00;97671.00;5073456;28;20020;-86
2021/04/08 04:46:36;;;;;;;5.40;2.88;;;;;;;2.22;100.00;97664.47;5090572;28;20038;-86
2021/04/08 04:49:02;;;;;;;4.40;3.05;;;;;;;2.37;100.00;97678.13;5073074;28;20035;-85
2021/04/08 04:51:27;;;;;;;2.42;2.25;;;;;;;2.41;100.00;97674.50;5073202;28;20410;-85
2021/04/08 04:53:53;;;;;;;4.95;3.55;;;;;;;2.47;100.00;97674.31;5090240;28;20027;-85
2021/04/08 04:56:18;;;;;;;3.25;2.60;;;;;;;2.52;100.00;97675.03;5089853;28;20032;-85
2021/04/08 04:58:44;;;;;;;3.70;2.75;;;;;;;2.64;100.00;97682.66;5090321;28;20034;-86
2021/04/08 05:01:09;;;;;;;3.72;3.17;;;;;;;2.84;100.00;97703.19;5078847;28;20035;-86
2021/04/08 05:03:35;;;;;;;4.68;3.40;;;;;;;3.04;100.00;97715.81;5090765;28;20113;-86
2021/04/08 05:06:00;;;;;;;7.13;3.80;;;;;;;3.03;100.00;97700.88;5073682;28;20032;-85
2021/04/08 05:08:26;;;;;;;2.60;2.40;;;;;;;3.13;100.00;97724.34;5088729;28;20016;-86
2021/04/08 05:10:52;;;;;;;11.50;3.10;;;;;;;3.07;98.42;97702.53;5073764;28;20056;-85
2021/04/08 05:13:17;;;;;;;3.65;1.67;;;;;;;3.26;97.68;97730.13;5090360;28;20078;-85
2021/04/08 05:15:43;;;;;;;1.88;1.52;;;;;;;3.03;96.66;97732.56;5073644;28;20055;-84
2021/04/08 05:18:08;;;;;;;3.35;2.55;;;;;;;3.11;99.06;97730.56;5073418;28;20081;-86
2021/04/08 05:20:34;;;;;;;1.77;1.52;;;;;;;3.39;98.75;97731.47;5076028;28;20058;-82
2021/04/08 05:23:00;;;;;;;2.83;1.77;;;;;;;3.31;97.04;97722.91;5078427;28;20024;-85
2021/04/08 05:25:25;;;;;;;3.40;2.58;;;;;;;3.43;97.67;97738.41;5073126;28;20114;-84
2021/04/08 05:27:52;;;;;;;2.03;1.73;;;;;;;3.21;96.80;97743.47;5073446;28;20023;-85
2021/04/08 05:30:18;;;;;;;1.58;1.48;;;;;;;3.14;97.51;97741.03;5075603;28;20032;-85
2021/04/08 05:32:44;;;;;;;5.78;3.13;;;;;;;3.23;98.55;97746.09;5093820;28;20052;-86
2021/04/08 05:35:10;;;;;;;6.32;3.38;;;;;;;3.24;98.40;97745.16;5094142;28;20126;-85
2021/04/08 05:37:35;;;;;;;4.47;3.17;;;;;;;3.39;98.71;97744.69;5094386;28;20426;-82
2021/04/08 05:40:01;;;;;;;13.95;3.90;;;;;;;3.61;97.71;97745.75;5077154;28;20028;-75
2021/04/08 05:42:26;;;;;;;3.35;2.83;;;;;;;3.71;96.93;97754.28;5094001;28;20039;-74
2021/04/08 05:44:52;;;;;;;13.13;5.85;;;;;;;3.82;95.35;97738.91;5094152;28;20055;-75
2021/04/08 05:47:18;;;;;;;3.10;2.83;;;;;;;3.77;93.78;97754.09;5094186;28;20047;-84
2021/04/08 05:49:43;;;;;;;8.10;4.00;;;;;;;4.02;92.66;97757.66;5078603;28;20097;-87
2021/04/08 05:52:09;;;;;;;2.38;1.85;;;;;;;4.15;91.94;97742.25;5099079;28;20057;-84
2021/04/08 05:54:34;;;;;;;6.80;3.90;;;;;;;4.33;90.41;97755.75;5078454;28;20388;-86
2021/04/08 05:57:00;;;;;;;18.73;3.63;;;;;;;4.55;90.76;97757.66;5076555;28;20051;-85
2021/04/08 05:59:28;;;;;;;20.88;5.72;;;;;;;4.95;89.59;97765.06;5076991;28;20040;-85
2021/04/08 06:01:54;;;;;;;4.03;3.00;;;;;;;5.02;88.23;97753.28;5093370;28;20035;-87
2021/04/08 06:04:20;;;;;;;7.93;5.47;;;;;;;5.44;84.96;97759.66;5093683;28;20027;-86
2021/04/08 06:06:45;;;;;;;4.57;3.72;;;;;;;5.86;83.46;97765.97;5073458;28;20029;-86
2021/04/08 06:09:11;;;;;;;5.25;4.75;;;;;;;5.75;81.58;97754.84;5076208;28;20032;-86
2021/04/08 06:11:37;;;;;;;15.35;5.53;;;;;;;6.01;79.80;97751.22;5076221;28;20110;-86
2021/04/08 06:14:02;;;;;;;7.25;5.68;;;;;;;6.52;77.42;97753.50;5093375;28;20508;-84
2021/04/08 06:16:28;;;;;;;9.80;8.02;;;;;;;6.59;76.08;97732.81;5076443;28;20031;-85
2021/04/08 06:18:53;;;;;;;5.63;3.65;;;;;;;7.42;72.59;97763.63;5076343;28;20560;-84
2021/04/08 06:21:19;;;;;;;8.25;4.80;;;;;;;8.00;70.08;97773.28;5076477;28;20036;-84
2021/04/08 06:23:45;;;;;;;4.57;3.85;;;;;;;8.37;66.75;97776.84;5092894;28;20042;-83
2021/04/08 06:26:10;;;;;;;6.28;3.30;;;;;;;8.69;64.63;97776.09;5076318;28;20097;-83
2021/04/08 06:28:36;;;;;;;4.10;3.05;;;;;;;8.34;64.93;97774.31;5075401;28;20094;-84
2021/04/08 06:31:01;;;;;;;4.28;3.22;;;;;;;8.81;62.23;97793.28;5076136;28;20492;-84
2021/04/08 06:33:27;;;;;;;4.60;2.88;;;;;;;9.18;58.86;97788.63;5092691;28;20036;-82
2021/04/08 06:35:52;;;;;;;4.18;2.42;;;;;;;9.22;52.49;97792.00;5075755;28;20032;-83
2021/04/08 06:38:18;;;;;;;3.20;1.38;;;;;;;8.79;51.91;97798.72;5075853;28;20546;-83
2021/04/08 06:40:43;;;;;;;2.78;1.88;;;;;;;8.37;53.05;97780.38;5077430;28;20032;-83
2021/04/08 06:43:11;;;;;;;3.28;2.28;;;;;;;7.70;55.28;97809.34;5075558;28;20024;-83
2021/04/08 06:45:38;;;;;;;1.95;1.25;;;;;;;7.48;53.57;97800.63;5093047;28;20039;-83
2021/04/08 06:48:08;;;;;;;16.05;3.17;;;;;;;7.75;53.14;97798.50;5095871;28;20028;-82
2021/04/08 06:50:36;;;;;;;2.08;0.90;;;;;;;7.86;51.24;97802.38;5086461;28;20085;-83
2021/04/08 06:53:07;;;;;;;5.68;3.40;;;;;;;7.64;53.90;97806.97;5076242;28;20027;-83
2021/04/08 06:55:33;;;;;;;4.25;1.90;;;;;;;8.07;54.20;97804.03;5075885;28;20032;-83
2021/04/08 06:57:59;;;;;;;5.10;2.63;;;;;;;8.63;53.78;97809.28;5075387;28;20410;-83
2021/04/08 07:00:25;;;;;;;5.95;1.17;;;;;;;8.35;52.39;97816.03;5075013;28;20023;-83
2021/04/08 07:02:51;;;;;;;0.55;0.32;;;;;;;8.49;54.04;97816.25;5076012;28;20027;-84
2021/04/08 07:05:17;;;;;;;1.17;0.80;;;;;;;8.27;55.21;97813.72;5075813;28;20040;-84
2021/04/08 07:07:43;;;;;;;3.45;2.35;;;;;;;8.78;52.49;97820.97;5075692;28;20028;-84
2021/04/08 07:10:09;;;;;;;2.97;1.17;;;;;;;9.06;52.57;97821.28;5075539;28;20081;-85
2021/04/08 07:12:34;;;;;;;3.50;1.67;;;;;;;9.14;51.74;97812.88;5092679;28;20116;-84
2021/04/08 07:15:00;;;;;;;1.27;1.00;;;;;;;9.50;51.22;97818.97;5075235;28;20035;-83
2021/04/08 07:17:26;;;;;;;1.58;0.50;;;;;;;9.39;48.58;97818.66;5092521;28;20032;-84
2021/04/08 07:19:55;;;;;;;1.85;1.02;;;;;;;9.78;50.51;97831.72;5075313;28;20039;-84
2021/04/08 07:22:20;;;;;;;1.40;0.75;;;;;;;10.01;50.23;97839.31;5075461;28;20040;-84
2021/04/08 07:24:47;;;;;;;9.48;1.73;;;;;;;10.42;48.31;97844.22;5075039;28;20070;-84
2021/04/08 07:27:18;;;;;;;2.20;1.58;;;;;;;10.12;46.82;97842.25;5075523;28;20024;-84
2021/04/08 07:30:01;;;;;;;0.82;0.60;;;;;;;10.19;47.91;97845.47;5092236;28;20036;-84
2021/04/08 07:32:33;;;;;;;5.10;3.05;;;;;;;10.41;49.19;97847.81;5075287;28;20032;-83
2021/04/08 07:35:18;;;;;;;3.78;1.60;;;;;;;10.28;47.83;97847.66;5074964;28;20530;-83
2021/04/08 07:37:54;;;;;;;3.92;1.98;;;;;;;10.88;46.96;97849.50;5074655;28;20453;-84
2021/04/08 07:40:23;;;;;;;3.53;1.42;;;;;;;11.06;47.72;97849.38;5074808;28;20035;-83
2021/04/08 07:42:48;;;;;;;3.08;1.80;;;;;;;10.94;46.32;97848.28;5075011;28;20035;-83
2021/04/08 07:45:33;;;;;;;1.13;1.00;;;;;;;10.92;46.17;97860.88;5075087;28;20028;-83
2021/04/08 07:48:04;;;;;;;2.13;1.48;;;;;;;11.41;42.39;97848.97;5075039;28;20107;-83
2021/04/08 07:50:31;;;;;;;20.15;8.32;;;;;;;11.34;41.09;97846.78;5066392;28;20067;-83
2021/04/08 07:53:00;;;;;;;43.40;23.75;;;;;;;11.48;39.78;97841.44;5074640;28;20027;-84
2021/04/08 07:55:28;;;;;;;23.63;7.88;;;;;;;11.76;41.54;97865.63;5075116;28;20120;-84
2021/04/08 07:58:06;;;;;;;18.45;9.95;;;;;;;12.42;39.28;97863.22;5091384;28;20044;-83
2021/04/08 08:00:41;;;;;;;13.98;7.07;;;;;;;13.18;38.68;97860.88;5091652;28;20112;-84
2021/04/08 08:03:10;;;;;;;15.23;6.75;;;;;;;13.60;37.39;97856.25;5091128;28;20028;-85
2021/04/08 08:05:46;;;;;;;24.90;8.23;;;;;;;13.58;37.86;97841.06;5091557;28;20031;-85
2021/04/08 08:08:20;;;;;;;15.60;8.50;;;;;;;13.61;36.77;97857.94;5074912;28;20118;-85
2021/04/08 08:11:03;;;;;;;27.60;9.80;;;;;;;14.83;36.64;97861.69;5074618;28;20028;-85
2021/04/08 08:13:36;;;;;;;19.35;9.75;;;;;;;16.28;32.82;97853.09;5091295;28;20088;-85
2021/04/08 08:16:02;;;;;;;12.38;7.38;;;;;;;17.51;31.06;97842.84;5090926;28;20032;-84
2021/04/08 08:18:32;;;;;;;16.85;7.82;;;;;;;16.73;31.44;97835.06;5074269;28;20035;-83
2021/04/08 08:21:05;;;;;;;18.80;7.72;;;;;;;16.82;30.61;97849.63;5090919;28;20520;-85
2021/04/08 08:23:47;;;;;;;17.67;10.38;;;;;;;17.24;30.12;97849.63;5091149;28;20035;-83
2021/04/08 08:26:31;;;;;;;8.68;5.63;;;;;;;17.19;28.51;97832.94;5073905;28;20117;-83
2021/04/08 08:28:59;;;;;;;11.45;5.25;;;;;;;17.64;28.69;97839.03;5090788;28;20472;-83
2021/04/08 08:31:34;;;;;;;8.43;4.63;;;;;;;18.37;27.52;97849.69;5074278;28;20119;-83
2021/04/08 08:34:02;;;;;;;13.30;6.18;;;;;;;18.53;27.12;97822.13;5090668;28;20475;-84
2021/04/08 08:36:29;;;;;;;12.68;4.75;;;;;;;18.85;26.25;97830.94;5074667;28;20036;-84
2021/04/08 08:38:56;;;;;;;15.23;7.55;;;;;;;19.58;26.04;97831.44;5091440;28;20036;-84
2021/04/08 08:41:23;;;;;;;19.20;9.00;;;;;;;20.88;26.38;97824.19;5074409;28;20412;-84
2021/04/08 08:43:49;;;;;;;12.95;6.10;;;;;;;21.20;23.10;97821.84;5074409;28;20028;-84
2021/04/08 08:46:16;;;;;;;13.93;7.97;;;;;;;21.32;22.77;97819.78;5073849;28;20115;-84
2021/04/08 08:48:41;;;;;;;18.95;6.00;;;;;;;20.55;23.44;97818.34;5090626;28;20053;-84
2021/04/08 08:51:07;;;;;;;16.75;7.18;;;;;;;18.94;24.58;97811.13;5073929;28;20513;-84
2021/04/08 08:53:33;;;;;;;16.63;5.80;;;;;;;19.14;26.13;97835.53;5090822;28;20059;-84
2021/04/08 08:56:00;;;;;;;13.85;8.38;;;;;;;19.74;24.66;97842.59;5074152;28;20092;-83
2021/04/08 08:58:26;;;;;;;8.55;5.05;;;;;;;19.35;25.26;97833.53;5074122;28;20127;-83
2021/04/08 09:00:52;;;;;;;19.92;7.05;;;;;;;19.91;25.09;97842.69;5091283;28;20057;-84
2021/04/08 09:03:18;;;;;;;12.90;7.30;;;;;;;19.69;23.28;97832.16;5074164;28;20488;-84
2021/04/08 09:05:43;;;;;;;15.20;5.85;;;;;;;20.31;22.25;97814.44;5073742;28;20061;-84
2021/04/08 09:08:12;;;;;;;11.07;5.82;;;;;;;20.22;22.32;97831.59;5074890;28;20028;-84
2021/04/08 09:10:40;;;;;;;21.27;7.00;;;;;;;20.98;22.31;97820.38;5074344;28;20475;-85
2021/04/08 09:13:06;;;;;;;13.88;6.85;;;;;;;20.73;20.87;97812.13;5073803;28;20032;-84
2021/04/08 09:15:32;;;;;;;13.80;3.97;;;;;;;19.65;21.36;97821.75;5090725;28;20380;-85
2021/04/08 09:17:59;;;;;;;9.23;5.40;;;;;;;19.43;23.47;97814.75;5090489;28;20118;-84
2021/04/08 09:20:26;;;;;;;11.00;6.43;;;;;;;20.33;23.40;97817.88;5073495;28;20039;-84
2021/04/08 09:22:58;;;;;;;15.52;7.68;;;;;;;18.56;22.76;97808.31;5073536;28;20488;-82
2021/04/08 09:25:30;;;;;;;12.27;7.87;;;;;;;15.71;27.96;97818.97;5082534;28;20031;-82
2021/04/08 09:27:58;;;;;;;12.20;7.63;;;;;;;15.26;27.46;97822.47;5073355;28;20080;-83
2021/04/08 09:33:42;;;;;;;10.13;4.68;;;;;;;14.14;27.47;97846.97;5063647;28;20032;-84
2021/04/08 09:36:20;;;;;;;9.10;3.80;;;;;;;16.00;27.51;97850.84;5089713;28;20036;-85
2021/04/08 09:38:49;;;;;;;10.55;4.88;;;;;;;17.11;25.66;97846.22;5089761;28;20038;-84
2021/04/08 09:41:15;;;;;;;6.30;4.15;;;;;;;14.92;26.36;97826.00;5073197;28;20039;-85
2021/04/08 09:43:40;;;;;;;9.10;3.88;;;;;;;13.88;26.38;97845.25;5089895;28;20024;-83
2021/04/08 09:46:08;;;;;;;16.02;8.15;;;;;;;12.96;29.30;97845.31;5072967;28;20510;-85
2021/04/08 09:48:52;;;;;;;14.00;7.75;;;;;;;12.32;29.71;97851.34;5072911;28;20115;-85
2021/04/08 09:51:45;;;;;;;10.35;6.25;;;;;;;14.07;30.36;97864.50;5071197;28;20078;-85
2021/04/08 09:54:16;;;;;;;7.55;4.50;;;;;;;16.21;25.46;97857.28;5072582;28;20028;-84
2021/04/08 09:56:55;;;;;;;15.55;7.50;;;;;;;18.43;22.50;97822.06;5072383;28;20049;-84
2021/04/08 09:59:24;;;;;;;14.13;6.85;;;;;;;20.82;20.09;97825.66;5087283;28;20419;-83
2021/04/08 10:11:04;;;;;;;6.35;4.15;;;;;;;19.12;21.60;97830.28;5780831;22;20052;-75
2021/04/08 10:13:31;;;;;;;11.02;4.93;;;;;;;20.23;20.21;97827.91;5016529;28;20021;-75
2021/04/08 10:16:01;;;;;;;10.13;5.20;;;;;;;19.60;19.70;97827.59;5009182;28;20032;-74
2021/04/08 10:18:29;;;;;;;9.00;5.90;;;;;;;19.61;20.48;97832.03;5020733;28;20029;-76
2021/04/08 10:20:57;;;;;;;14.65;5.57;;;;;;;20.64;19.06;97832.88;5020101;28;20459;-74
2021/04/08 10:23:33;;;;;;;14.45;5.85;;;;;;;22.30;18.50;97836.78;5052495;28;20059;-75
2021/04/08 10:26:02;;;;;;;9.13;3.67;;;;;;;23.06;15.58;97821.31;5019777;28;20033;-74
2021/04/08 10:28:43;;;;;;;6.40;4.55;;;;;;;23.26;16.15;97819.13;5048938;28;20021;-75
2021/04/08 10:31:32;;;;;;;19.98;5.18;;;;;;;24.26;17.39;97840.75;5051922;28;20031;-74
2021/04/08 10:34:08;;;;;;;8.32;3.95;;;;;;;19.81;20.61;97825.56;5022631;28;20128;-74
2021/04/08 10:36:40;;;;;;;6.57;2.80;;;;;;;17.75;21.79;97825.41;5034066;28;20039;-76
2021/04/08 10:39:15;;;;;;;8.38;4.85;;;;;;;17.22;22.58;97842.63;5036161;28;20102;-76
2021/04/08 10:42:02;;;;;;;20.17;4.25;;;;;;;19.02;21.38;97848.38;5051074;28;20030;-74
2021/04/08 10:44:46;;;;;;;7.82;2.60;;;;;;;18.51;21.69;97843.09;5031096;28;20044;-75
2021/04/08 10:47:22;;;;;;;8.77;5.80;;;;;;;19.06;21.16;97835.41;5034954;28;20385;-74
2021/04/08 10:49:54;;;;;;;13.07;5.53;;;;;;;18.84;21.22;97848.19;5018914;28;20028;-82
2021/04/08 10:52:25;;;;;;;8.45;4.93;;;;;;;19.25;21.47;97849.00;5019328;28;20033;-84
2021/04/08 10:54:53;;;;;;;8.82;5.10;;;;;;;18.93;20.52;97839.22;5012342;28;20190;-83
2021/04/08 10:57:19;;;;;;;3.67;2.53;;;;;;;17.81;20.64;97833.00;5032622;28;20061;-82
2021/04/08 10:59:46;;;;;;;7.10;2.50;;;;;;;16.92;21.95;97826.28;5035568;28;20037;-84
2021/04/08 11:02:34;;;;;;;5.80;2.70;;;;;;;15.85;23.27;97836.75;5019281;28;20071;-83
2021/04/08 11:05:03;;;;;;;9.10;4.35;;;;;;;16.99;21.37;97831.03;5033024;28;20021;-82
2021/04/08 11:07:35;;;;;;;12.80;6.03;;;;;;;19.78;19.91;97823.13;5023421;28;20025;-84
2021/04/08 11:10:18;;;;;;;15.30;5.38;;;;;;;22.02;19.88;97841.53;5014920;28;20102;-84
2021/04/08 11:12:47;;;;;;;6.68;4.50;;;;;;;23.31;16.41;97822.22;5029471;28;20134;-84
2021/04/08 11:15:14;;;;;;;16.42;4.47;;;;;;;22.33;18.90;97831.00;5019150;28;20032;-84
2021/04/08 11:17:45;;;;;;;6.75;3.05;;;;;;;19.58;19.55;97824.16;5018916;28;20025;-82
2021/04/08 11:20:12;;;;;;;9.55;2.63;;;;;;;17.19;20.56;97823.97;5033142;28;20182;-81
2021/04/08 11:22:44;;;;;;;15.07;3.92;;;;;;;18.11;21.34;97820.50;5017140;28;20654;-82
2021/04/08 11:25:14;;;;;;;6.43;2.25;;;;;;;20.13;17.84;97837.94;5016506;28;20042;-75
2021/04/08 11:27:43;;;;;;;11.30;4.40;;;;;;;20.51;18.76;97832.41;5050688;28;20090;-75
2021/04/08 11:30:29;;;;;;;8.65;4.22;;;;;;;22.02;17.27;97827.91;5031507;28;20463;-75
2021/04/08 11:32:56;;;;;;;18.67;6.43;;;;;;;22.67;16.64;97828.31;5033475;28;20036;-74
2021/04/08 11:35:30;;;;;;;8.05;4.05;;;;;;;22.97;17.55;97816.84;5044675;28;20532;-74
2021/04/08 11:38:15;;;;;;;7.47;4.55;;;;;;;22.13;15.92;97816.72;5050368;28;20029;-75
2021/04/08 11:40:51;;;;;;;15.32;7.90;;;;;;;20.28;16.92;97804.72;5051570;28;20511;-76
2021/04/08 11:43:25;;;;;;;9.13;4.22;;;;;;;20.98;16.71;97817.66;5034441;28;20493;-75
2021/04/08 11:45:56;;;;;;;6.88;4.25;;;;;;;22.67;16.71;97823.69;5051449;28;20467;-75
2021/04/08 11:48:22;;;;;;;3.30;2.60;;;;;;;22.83;15.32;97816.59;5018424;28;20029;-75
2021/04/08 11:50:49;;;;;;;4.18;2.92;;;;;;;23.27;15.27;97812.66;5046019;28;20060;-76
2021/04/08 11:53:32;;;;;;;10.15;2.53;;;;;;;22.44;16.05;97810.78;5034742;28;20083;-75
2021/04/08 11:55:58;;;;;;;6.88;3.17;;;;;;;22.23;16.40;97813.03;5034596;28;20420;-76